sensor_id;sensor_type;location;lat;lon;timestamp;P1;durP1;ratioP1;P2;durP2;ratioP2
44885;SDS011;36669;51.428;21.162;2023-02-01T00:01:49;11.02;;;4.93;;
44885;SDS011;36669;51.428;21.162;2023-02-01T00:04:15;7.75;;;4.10;;
44885;SDS011;36669;51.428;21.162;2023-02-01T00:06:40;10.48;;;7.95;;
44885;SDS011;36669;51.428;21.162;2023-02-01T00:09:06;4.70;;;2.72;;
44885;SDS011;36669;51.428;21.162;2023-02-01T00:11:32;7.93;;;5.32;;
44885;SDS011;36669;51.428;21.162;2023-02-01T00:13:58;4.07;;;2.60;;
44885;SDS011;36669;51.428;21.162;2023-02-01T00:16:27;5.93;;;3.63;;
44885;SDS011;36669;51.428;21.162;2023-02-01T00:18:59;7.85;;;3.42;;
44885;SDS011;36669;51.428;21.162;2023-02-01T00:21:27;11.60;;;2.97;;
44885;SDS011;36669;51.428;21.162;2023-02-01T00:23:53;5.20;;;3.67;;
44885;SDS011;36669;51.428;21.162;2023-02-01T00:26:19;5.75;;;2.83;;
44885;SDS011;36669;51.428;21.162;2023-02-01T00:28:57;3.22;;;2.00;;
44885;SDS011;36669;51.428;21.162;2023-02-01T00:31:23;9.27;;;4.78;;
44885;SDS011;36669;51.428;21.162;2023-02-01T00:33:49;9.70;;;4.72;;
44885;SDS011;36669;51.428;21.162;2023-02-01T00:36:15;10.27;;;7.60;;
44885;SDS011;36669;51.428;21.162;2023-02-01T00:38:41;8.82;;;5.88;;
44885;SDS011;36669;51.428;21.162;2023-02-01T00:41:09;7.97;;;4.80;;
44885;SDS011;36669;51.428;21.162;2023-02-01T00:43:37;11.98;;;5.97;;
44885;SDS011;36669;51.428;21.162;2023-02-01T00:46:03;6.07;;;4.60;;
44885;SDS011;36669;51.428;21.162;2023-02-01T00:48:29;6.05;;;4.05;;
44885;SDS011;36669;51.428;21.162;2023-02-01T00:51:02;5.10;;;3.53;;
44885;SDS011;36669;51.428;21.162;2023-02-01T00:53:29;8.23;;;5.10;;
44885;SDS011;36669;51.428;21.162;2023-02-01T00:55:55;7.57;;;3.10;;
44885;SDS011;36669;51.428;21.162;2023-02-01T00:58:21;5.20;;;3.25;;
44885;SDS011;36669;51.428;21.162;2023-02-01T01:00:49;6.78;;;4.10;;
44885;SDS011;36669;51.428;21.162;2023-02-01T01:03:14;7.55;;;4.53;;
44885;SDS011;36669;51.428;21.162;2023-02-01T01:05:44;7.00;;;4.80;;
44885;SDS011;36669;51.428;21.162;2023-02-01T01:08:10;4.38;;;3.15;;
44885;SDS011;36669;51.428;21.162;2023-02-01T01:10:36;3.97;;;3.08;;
44885;SDS011;36669;51.428;21.162;2023-02-01T01:13:02;4.90;;;3.83;;
44885;SDS011;36669;51.428;21.162;2023-02-01T01:15:27;4.13;;;3.35;;
44885;SDS011;36669;51.428;21.162;2023-02-01T01:17:53;5.63;;;2.85;;
44885;SDS011;36669;51.428;21.162;2023-02-01T01:20:18;5.10;;;2.67;;
44885;SDS011;36669;51.428;21.162;2023-02-01T01:22:46;6.90;;;3.47;;
44885;SDS011;36669;51.428;21.162;2023-02-01T01:25:13;2.95;;;1.92;;
44885;SDS011;36669;51.428;21.162;2023-02-01T01:27:39;3.78;;;2.10;;
44885;SDS011;36669;51.428;21.162;2023-02-01T01:30:05;3.15;;;1.65;;
44885;SDS011;36669;51.428;21.162;2023-02-01T01:32:32;4.00;;;2.08;;
44885;SDS011;36669;51.428;21.162;2023-02-01T01:34:58;3.90;;;1.60;;
44885;SDS011;36669;51.428;21.162;2023-02-01T01:37:23;5.18;;;2.80;;
44885;SDS011;36669;51.428;21.162;2023-02-01T01:39:49;2.85;;;1.48;;
44885;SDS011;36669;51.428;21.162;2023-02-01T01:42:14;1.73;;;1.30;;
44885;SDS011;36669;51.428;21.162;2023-02-01T01:47:46;1.77;;;1.15;;
44885;SDS011;36669;51.428;21.162;2023-02-01T01:50:16;2.13;;;1.33;;
44885;SDS011;36669;51.428;21.162;2023-02-01T01:52:45;1.95;;;0.98;;
44885;SDS011;36669;51.428;21.162;2023-02-01T01:55:13;3.20;;;1.20;;
44885;SDS011;36669;51.428;21.162;2023-02-01T01:57:42;4.15;;;1.38;;
44885;SDS011;36669;51.428;21.162;2023-02-01T02:00:13;3.70;;;1.40;;
44885;SDS011;36669;51.428;21.162;2023-02-01T02:02:41;4.30;;;2.00;;
44885;SDS011;36669;51.428;21.162;2023-02-01T02:05:09;5.18;;;1.73;;
44885;SDS011;36669;51.428;21.162;2023-02-01T02:07:37;8.02;;;1.48;;
44885;SDS011;36669;51.428;21.162;2023-02-01T02:10:07;6.32;;;1.90;;
44885;SDS011;36669;51.428;21.162;2023-02-01T02:12:39;4.40;;;1.63;;
44885;SDS011;36669;51.428;21.162;2023-02-01T02:15:10;3.47;;;1.30;;
44885;SDS011;36669;51.428;21.162;2023-02-01T02:22:53;4.03;;;1.58;;
44885;SDS011;36669;51.428;21.162;2023-02-01T02:36:55;4.60;;;1.27;;
44885;SDS011;36669;51.428;21.162;2023-02-01T02:50:36;1.40;;;0.85;;
44885;SDS011;36669;51.428;21.162;2023-02-01T02:53:28;4.50;;;1.90;;
44885;SDS011;36669;51.428;21.162;2023-02-01T02:56:17;3.97;;;1.00;;
44885;SDS011;36669;51.428;21.162;2023-02-01T02:59:04;5.82;;;1.10;;
44885;SDS011;36669;51.428;21.162;2023-02-01T03:01:51;9.90;;;1.42;;
44885;SDS011;36669;51.428;21.162;2023-02-01T03:04:35;8.73;;;1.95;;
44885;SDS011;36669;51.428;21.162;2023-02-01T03:12:51;7.53;;;1.85;;
44885;SDS011;36669;51.428;21.162;2023-02-01T03:18:13;5.97;;;1.52;;
44885;SDS011;36669;51.428;21.162;2023-02-01T03:20:44;9.32;;;2.30;;
44885;SDS011;36669;51.428;21.162;2023-02-01T03:23:14;6.35;;;2.17;;
44885;SDS011;36669;51.428;21.162;2023-02-01T03:25:42;6.50;;;2.00;;
44885;SDS011;36669;51.428;21.162;2023-02-01T03:28:08;7.32;;;1.67;;
44885;SDS011;36669;51.428;21.162;2023-02-01T03:30:37;6.55;;;1.48;;
44885;SDS011;36669;51.428;21.162;2023-02-01T03:33:07;7.75;;;2.17;;
44885;SDS011;36669;51.428;21.162;2023-02-01T03:46:18;5.50;;;1.98;;
44885;SDS011;36669;51.428;21.162;2023-02-01T03:48:49;8.05;;;1.77;;
44885;SDS011;36669;51.428;21.162;2023-02-01T03:51:17;5.57;;;2.03;;
44885;SDS011;36669;51.428;21.162;2023-02-01T03:53:45;16.20;;;2.65;;
44885;SDS011;36669;51.428;21.162;2023-02-01T03:56:14;4.72;;;1.77;;
44885;SDS011;36669;51.428;21.162;2023-02-01T03:58:40;8.68;;;1.73;;
44885;SDS011;36669;51.428;21.162;2023-02-01T04:01:06;5.28;;;2.20;;
44885;SDS011;36669;51.428;21.162;2023-02-01T04:03:32;9.38;;;1.92;;
44885;SDS011;36669;51.428;21.162;2023-02-01T04:05:57;4.97;;;2.00;;
44885;SDS011;36669;51.428;21.162;2023-02-01T04:08:23;7.55;;;2.13;;
44885;SDS011;36669;51.428;21.162;2023-02-01T04:10:49;10.85;;;2.85;;
44885;SDS011;36669;51.428;21.162;2023-02-01T04:13:14;9.55;;;2.10;;
44885;SDS011;36669;51.428;21.162;2023-02-01T04:15:40;7.72;;;2.55;;
44885;SDS011;36669;51.428;21.162;2023-02-01T04:18:06;10.50;;;2.70;;
44885;SDS011;36669;51.428;21.162;2023-02-01T04:20:31;12.13;;;2.03;;
44885;SDS011;36669;51.428;21.162;2023-02-01T04:22:57;10.23;;;2.40;;
44885;SDS011;36669;51.428;21.162;2023-02-01T04:25:23;11.13;;;2.08;;
44885;SDS011;36669;51.428;21.162;2023-02-01T04:27:48;9.02;;;2.10;;
44885;SDS011;36669;51.428;21.162;2023-02-01T04:30:14;14.43;;;3.05;;
44885;SDS011;36669;51.428;21.162;2023-02-01T04:32:40;9.30;;;2.70;;
44885;SDS011;36669;51.428;21.162;2023-02-01T04:35:06;6.70;;;2.13;;
44885;SDS011;36669;51.428;21.162;2023-02-01T04:37:32;11.52;;;2.65;;
44885;SDS011;36669;51.428;21.162;2023-02-01T04:39:58;7.43;;;2.25;;
44885;SDS011;36669;51.428;21.162;2023-02-01T04:42:24;6.97;;;2.00;;
44885;SDS011;36669;51.428;21.162;2023-02-01T04:44:50;15.88;;;2.58;;
44885;SDS011;36669;51.428;21.162;2023-02-01T04:47:16;9.23;;;2.72;;
44885;SDS011;36669;51.428;21.162;2023-02-01T04:49:42;12.65;;;2.75;;
44885;SDS011;36669;51.428;21.162;2023-02-01T04:52:07;14.82;;;4.18;;
44885;SDS011;36669;51.428;21.162;2023-02-01T04:54:33;11.82;;;3.17;;
44885;SDS011;36669;51.428;21.162;2023-02-01T04:56:59;13.18;;;2.90;;
44885;SDS011;36669;51.428;21.162;2023-02-01T04:59:25;8.68;;;2.95;;
44885;SDS011;36669;51.428;21.162;2023-02-01T05:01:51;10.05;;;3.00;;
44885;SDS011;36669;51.428;21.162;2023-02-01T05:04:17;8.63;;;2.35;;
44885;SDS011;36669;51.428;21.162;2023-02-01T05:06:43;12.02;;;3.20;;
44885;SDS011;36669;51.428;21.162;2023-02-01T05:09:09;5.93;;;2.20;;
44885;SDS011;36669;51.428;21.162;2023-02-01T05:11:35;8.32;;;2.33;;
44885;SDS011;36669;51.428;21.162;2023-02-01T05:14:19;6.25;;;1.95;;
44885;SDS011;36669;51.428;21.162;2023-02-01T05:16:45;10.05;;;2.35;;
44885;SDS011;36669;51.428;21.162;2023-02-01T05:19:11;9.57;;;2.83;;
44885;SDS011;36669;51.428;21.162;2023-02-01T05:21:37;5.95;;;2.38;;
44885;SDS011;36669;51.428;21.162;2023-02-01T05:24:03;9.70;;;3.38;;
44885;SDS011;36669;51.428;21.162;2023-02-01T05:26:35;6.55;;;2.83;;
44885;SDS011;36669;51.428;21.162;2023-02-01T05:29:01;18.15;;;3.80;;
44885;SDS011;36669;51.428;21.162;2023-02-01T05:31:27;7.13;;;1.98;;
44885;SDS011;36669;51.428;21.162;2023-02-01T05:33:53;6.68;;;1.27;;
44885;SDS011;36669;51.428;21.162;2023-02-01T05:36:19;6.90;;;2.50;;
44885;SDS011;36669;51.428;21.162;2023-02-01T05:38:44;9.10;;;3.05;;
44885;SDS011;36669;51.428;21.162;2023-02-01T05:41:10;7.13;;;2.78;;
44885;SDS011;36669;51.428;21.162;2023-02-01T05:43:36;13.82;;;2.47;;
44885;SDS011;36669;51.428;21.162;2023-02-01T05:46:01;9.27;;;3.05;;
44885;SDS011;36669;51.428;21.162;2023-02-01T05:48:27;8.90;;;2.13;;
44885;SDS011;36669;51.428;21.162;2023-02-01T05:50:53;9.88;;;1.88;;
44885;SDS011;36669;51.428;21.162;2023-02-01T05:53:18;11.90;;;2.88;;
44885;SDS011;36669;51.428;21.162;2023-02-01T05:55:44;17.85;;;3.85;;
44885;SDS011;36669;51.428;21.162;2023-02-01T05:58:10;8.60;;;2.42;;
44885;SDS011;36669;51.428;21.162;2023-02-01T06:00:37;8.98;;;1.70;;
44885;SDS011;36669;51.428;21.162;2023-02-01T06:03:02;7.15;;;2.53;;
44885;SDS011;36669;51.428;21.162;2023-02-01T06:05:28;10.10;;;2.13;;
44885;SDS011;36669;51.428;21.162;2023-02-01T06:07:54;12.13;;;3.13;;
44885;SDS011;36669;51.428;21.162;2023-02-01T06:10:19;9.20;;;2.33;;
44885;SDS011;36669;51.428;21.162;2023-02-01T06:12:45;7.78;;;2.30;;
44885;SDS011;36669;51.428;21.162;2023-02-01T06:15:11;3.97;;;1.73;;
44885;SDS011;36669;51.428;21.162;2023-02-01T06:17:38;7.05;;;2.58;;
44885;SDS011;36669;51.428;21.162;2023-02-01T06:20:06;12.40;;;2.38;;
44885;SDS011;36669;51.428;21.162;2023-02-01T06:22:32;11.30;;;2.28;;
44885;SDS011;36669;51.428;21.162;2023-02-01T06:24:58;16.00;;;2.45;;
44885;SDS011;36669;51.428;21.162;2023-02-01T06:27:24;9.23;;;1.92;;
44885;SDS011;36669;51.428;21.162;2023-02-01T06:29:50;9.07;;;1.73;;
44885;SDS011;36669;51.428;21.162;2023-02-01T06:32:16;7.30;;;2.10;;
44885;SDS011;36669;51.428;21.162;2023-02-01T06:34:42;12.45;;;2.60;;
44885;SDS011;36669;51.428;21.162;2023-02-01T06:37:08;16.27;;;3.33;;
44885;SDS011;36669;51.428;21.162;2023-02-01T06:39:36;12.75;;;3.28;;
44885;SDS011;36669;51.428;21.162;2023-02-01T06:42:01;8.75;;;2.28;;
44885;SDS011;36669;51.428;21.162;2023-02-01T06:44:28;11.02;;;3.03;;
44885;SDS011;36669;51.428;21.162;2023-02-01T06:46:53;13.25;;;3.25;;
44885;SDS011;36669;51.428;21.162;2023-02-01T06:49:19;15.30;;;3.33;;
44885;SDS011;36669;51.428;21.162;2023-02-01T06:51:45;26.15;;;3.53;;
44885;SDS011;36669;51.428;21.162;2023-02-01T06:54:11;8.32;;;3.17;;
44885;SDS011;36669;51.428;21.162;2023-02-01T06:56:37;7.18;;;2.83;;
44885;SDS011;36669;51.428;21.162;2023-02-01T06:59:03;7.85;;;1.90;;
44885;SDS011;36669;51.428;21.162;2023-02-01T07:01:30;7.05;;;2.15;;
44885;SDS011;36669;51.428;21.162;2023-02-01T07:03:56;8.60;;;2.28;;
44885;SDS011;36669;51.428;21.162;2023-02-01T07:06:22;16.73;;;3.38;;
44885;SDS011;36669;51.428;21.162;2023-02-01T07:08:48;15.73;;;3.25;;
44885;SDS011;36669;51.428;21.162;2023-02-01T07:11:14;16.73;;;3.85;;
44885;SDS011;36669;51.428;21.162;2023-02-01T07:13:41;12.90;;;2.90;;
44885;SDS011;36669;51.428;21.162;2023-02-01T07:16:09;11.13;;;2.42;;
44885;SDS011;36669;51.428;21.162;2023-02-01T07:18:37;12.70;;;2.67;;
44885;SDS011;36669;51.428;21.162;2023-02-01T07:21:03;10.50;;;2.28;;
44885;SDS011;36669;51.428;21.162;2023-02-01T07:23:28;17.67;;;3.88;;
44885;SDS011;36669;51.428;21.162;2023-02-01T07:25:55;13.13;;;3.25;;
44885;SDS011;36669;51.428;21.162;2023-02-01T07:28:21;14.25;;;2.97;;
44885;SDS011;36669;51.428;21.162;2023-02-01T07:30:47;13.20;;;2.95;;
44885;SDS011;36669;51.428;21.162;2023-02-01T07:33:17;8.77;;;2.63;;
44885;SDS011;36669;51.428;21.162;2023-02-01T07:35:44;12.18;;;2.55;;
44885;SDS011;36669;51.428;21.162;2023-02-01T07:38:09;11.85;;;2.63;;
44885;SDS011;36669;51.428;21.162;2023-02-01T07:40:35;11.52;;;2.95;;
44885;SDS011;36669;51.428;21.162;2023-02-01T07:43:00;7.78;;;2.70;;
44885;SDS011;36669;51.428;21.162;2023-02-01T07:45:26;7.85;;;2.10;;
44885;SDS011;36669;51.428;21.162;2023-02-01T07:47:52;8.65;;;2.45;;
44885;SDS011;36669;51.428;21.162;2023-02-01T07:50:18;19.55;;;4.72;;
44885;SDS011;36669;51.428;21.162;2023-02-01T07:52:44;15.77;;;3.40;;
44885;SDS011;36669;51.428;21.162;2023-02-01T07:55:09;9.82;;;2.33;;
44885;SDS011;36669;51.428;21.162;2023-02-01T07:57:35;16.17;;;3.33;;
44885;SDS011;36669;51.428;21.162;2023-02-01T08:00:01;8.50;;;2.90;;
44885;SDS011;36669;51.428;21.162;2023-02-01T08:02:46;17.73;;;4.32;;
44885;SDS011;36669;51.428;21.162;2023-02-01T08:05:11;12.77;;;3.00;;
44885;SDS011;36669;51.428;21.162;2023-02-01T08:07:37;10.60;;;2.28;;
44885;SDS011;36669;51.428;21.162;2023-02-01T08:10:03;10.30;;;3.28;;
44885;SDS011;36669;51.428;21.162;2023-02-01T08:12:30;7.03;;;1.90;;
44885;SDS011;36669;51.428;21.162;2023-02-01T08:14:56;14.88;;;3.00;;
44885;SDS011;36669;51.428;21.162;2023-02-01T08:17:21;18.40;;;3.97;;
44885;SDS011;36669;51.428;21.162;2023-02-01T08:19:47;20.83;;;3.55;;
44885;SDS011;36669;51.428;21.162;2023-02-01T08:22:13;9.25;;;2.65;;
44885;SDS011;36669;51.428;21.162;2023-02-01T08:24:38;18.98;;;3.17;;
44885;SDS011;36669;51.428;21.162;2023-02-01T08:27:05;10.80;;;2.83;;
44885;SDS011;36669;51.428;21.162;2023-02-01T08:29:31;13.90;;;3.22;;
44885;SDS011;36669;51.428;21.162;2023-02-01T08:31:56;16.58;;;3.35;;
44885;SDS011;36669;51.428;21.162;2023-02-01T08:34:22;13.23;;;3.08;;
44885;SDS011;36669;51.428;21.162;2023-02-01T08:36:48;15.88;;;3.78;;
44885;SDS011;36669;51.428;21.162;2023-02-01T08:39:14;9.52;;;2.53;;
44885;SDS011;36669;51.428;21.162;2023-02-01T08:41:39;12.18;;;3.55;;
44885;SDS011;36669;51.428;21.162;2023-02-01T08:44:07;14.32;;;2.88;;
44885;SDS011;36669;51.428;21.162;2023-02-01T08:46:33;9.23;;;2.75;;
44885;SDS011;36669;51.428;21.162;2023-02-01T08:48:59;2.60;;;1.50;;
44885;SDS011;36669;51.428;21.162;2023-02-01T08:51:24;24.95;;;3.08;;
44885;SDS011;36669;51.428;21.162;2023-02-01T08:53:50;9.23;;;2.53;;
44885;SDS011;36669;51.428;21.162;2023-02-01T08:56:17;21.27;;;3.03;;
44885;SDS011;36669;51.428;21.162;2023-02-01T08:58:43;14.63;;;3.30;;
44885;SDS011;36669;51.428;21.162;2023-02-01T09:01:10;15.25;;;3.00;;
44885;SDS011;36669;51.428;21.162;2023-02-01T09:03:39;12.25;;;2.88;;
44885;SDS011;36669;51.428;21.162;2023-02-01T09:06:06;11.95;;;3.35;;
44885;SDS011;36669;51.428;21.162;2023-02-01T09:08:33;9.57;;;3.05;;
44885;SDS011;36669;51.428;21.162;2023-02-01T09:11:02;14.05;;;3.17;;
44885;SDS011;36669;51.428;21.162;2023-02-01T09:13:32;11.40;;;2.90;;
44885;SDS011;36669;51.428;21.162;2023-02-01T09:16:01;21.10;;;2.70;;
44885;SDS011;36669;51.428;21.162;2023-02-01T09:18:27;11.55;;;3.33;;
44885;SDS011;36669;51.428;21.162;2023-02-01T09:20:53;11.68;;;2.58;;
44885;SDS011;36669;51.428;21.162;2023-02-01T09:23:19;8.00;;;2.70;;
44885;SDS011;36669;51.428;21.162;2023-02-01T09:25:47;13.02;;;2.72;;
44885;SDS011;36669;51.428;21.162;2023-02-01T09:28:15;10.90;;;3.10;;
44885;SDS011;36669;51.428;21.162;2023-02-01T09:30:41;12.85;;;2.75;;
44885;SDS011;36669;51.428;21.162;2023-02-01T09:33:07;16.65;;;3.80;;
44885;SDS011;36669;51.428;21.162;2023-02-01T09:35:32;10.38;;;2.83;;
44885;SDS011;36669;51.428;21.162;2023-02-01T09:37:58;8.52;;;2.58;;
44885;SDS011;36669;51.428;21.162;2023-02-01T09:40:23;9.90;;;3.25;;
44885;SDS011;36669;51.428;21.162;2023-02-01T09:47:57;6.40;;;2.63;;
44885;SDS011;36669;51.428;21.162;2023-02-01T09:50:36;6.93;;;2.38;;
44885;SDS011;36669;51.428;21.162;2023-02-01T09:53:06;10.25;;;2.50;;
44885;SDS011;36669;51.428;21.162;2023-02-01T09:55:50;22.02;;;3.30;;
44885;SDS011;36669;51.428;21.162;2023-02-01T09:58:20;11.20;;;3.20;;
44885;SDS011;36669;51.428;21.162;2023-02-01T10:00:53;14.43;;;3.35;;
44885;SDS011;36669;51.428;21.162;2023-02-01T10:03:23;12.05;;;3.38;;
44885;SDS011;36669;51.428;21.162;2023-02-01T10:08:26;12.05;;;2.95;;
44885;SDS011;36669;51.428;21.162;2023-02-01T10:14:04;15.23;;;3.75;;
44885;SDS011;36669;51.428;21.162;2023-02-01T10:16:52;16.77;;;4.03;;
44885;SDS011;36669;51.428;21.162;2023-02-01T10:19:32;16.77;;;4.35;;
44885;SDS011;36669;51.428;21.162;2023-02-01T10:25:12;11.13;;;3.00;;
44885;SDS011;36669;51.428;21.162;2023-02-01T10:27:41;21.40;;;4.18;;
44885;SDS011;36669;51.428;21.162;2023-02-01T10:30:21;13.18;;;3.13;;
44885;SDS011;36669;51.428;21.162;2023-02-01T10:32:50;16.75;;;3.47;;
44885;SDS011;36669;51.428;21.162;2023-02-01T10:35:24;14.25;;;3.00;;
44885;SDS011;36669;51.428;21.162;2023-02-01T10:38:02;13.82;;;2.90;;
44885;SDS011;36669;51.428;21.162;2023-02-01T10:40:36;11.40;;;3.53;;
44885;SDS011;36669;51.428;21.162;2023-02-01T10:43:02;15.38;;;3.40;;
44885;SDS011;36669;51.428;21.162;2023-02-01T10:45:29;14.02;;;3.67;;
44885;SDS011;36669;51.428;21.162;2023-02-01T10:47:57;25.13;;;4.45;;
44885;SDS011;36669;51.428;21.162;2023-02-01T10:53:25;11.55;;;2.90;;
44885;SDS011;36669;51.428;21.162;2023-02-01T10:56:08;17.55;;;4.53;;
44885;SDS011;36669;51.428;21.162;2023-02-01T10:58:35;18.75;;;4.50;;
44885;SDS011;36669;51.428;21.162;2023-02-01T11:01:15;23.08;;;5.22;;
44885;SDS011;36669;51.428;21.162;2023-02-01T11:06:30;9.15;;;2.90;;
44885;SDS011;36669;51.428;21.162;2023-02-01T11:09:00;6.80;;;2.28;;
44885;SDS011;36669;51.428;21.162;2023-02-01T11:12:20;12.65;;;3.67;;
44885;SDS011;36669;51.428;21.162;2023-02-01T11:14:30;12.27;;;2.97;;
44885;SDS011;36669;51.428;21.162;2023-02-01T11:17:17;17.30;;;3.40;;
44885;SDS011;36669;51.428;21.162;2023-02-01T11:19:58;13.68;;;3.38;;
44885;SDS011;36669;51.428;21.162;2023-02-01T11:22:26;17.58;;;4.57;;
44885;SDS011;36669;51.428;21.162;2023-02-01T11:24:53;17.92;;;4.30;;
44885;SDS011;36669;51.428;21.162;2023-02-01T11:27:20;19.88;;;4.55;;
44885;SDS011;36669;51.428;21.162;2023-02-01T11:29:49;10.05;;;2.83;;
44885;SDS011;36669;51.428;21.162;2023-02-01T11:32:19;14.25;;;2.95;;
44885;SDS011;36669;51.428;21.162;2023-02-01T11:35:00;15.63;;;3.20;;
44885;SDS011;36669;51.428;21.162;2023-02-01T11:37:38;13.27;;;2.80;;
44885;SDS011;36669;51.428;21.162;2023-02-01T11:42:52;8.98;;;2.92;;
44885;SDS011;36669;51.428;21.162;2023-02-01T11:45:23;11.88;;;3.53;;
44885;SDS011;36669;51.428;21.162;2023-02-01T11:47:52;12.45;;;2.92;;
44885;SDS011;36669;51.428;21.162;2023-02-01T11:50:19;11.13;;;3.78;;
44885;SDS011;36669;51.428;21.162;2023-02-01T12:07:13;8.85;;;3.22;;
44885;SDS011;36669;51.428;21.162;2023-02-01T12:12:45;12.93;;;3.10;;
44885;SDS011;36669;51.428;21.162;2023-02-01T12:29:26;14.63;;;4.55;;
44885;SDS011;36669;51.428;21.162;2023-02-01T12:32:11;21.48;;;3.10;;
44885;SDS011;36669;51.428;21.162;2023-02-01T12:45:55;15.35;;;3.63;;
44885;SDS011;36669;51.428;21.162;2023-02-01T12:48:33;8.60;;;3.05;;
44885;SDS011;36669;51.428;21.162;2023-02-01T12:51:07;7.38;;;3.03;;
44885;SDS011;36669;51.428;21.162;2023-02-01T12:53:46;12.88;;;3.40;;
44885;SDS011;36669;51.428;21.162;2023-02-01T12:56:36;17.05;;;3.53;;
44885;SDS011;36669;51.428;21.162;2023-02-01T12:59:03;10.82;;;3.00;;
44885;SDS011;36669;51.428;21.162;2023-02-01T13:01:34;13.85;;;3.22;;
44885;SDS011;36669;51.428;21.162;2023-02-01T13:06:35;15.13;;;5.18;;
44885;SDS011;36669;51.428;21.162;2023-02-01T13:09:25;11.57;;;3.83;;
44885;SDS011;36669;51.428;21.162;2023-02-01T13:11:55;10.05;;;3.45;;
44885;SDS011;36669;51.428;21.162;2023-02-01T13:14:42;13.38;;;3.72;;
44885;SDS011;36669;51.428;21.162;2023-02-01T13:17:27;18.88;;;5.25;;
44885;SDS011;36669;51.428;21.162;2023-02-01T13:25:16;18.52;;;4.07;;
44885;SDS011;36669;51.428;21.162;2023-02-01T13:27:46;17.80;;;3.50;;
44885;SDS011;36669;51.428;21.162;2023-02-01T13:38:35;11.52;;;3.67;;
44885;SDS011;36669;51.428;21.162;2023-02-01T13:44:04;16.20;;;4.00;;
44885;SDS011;36669;51.428;21.162;2023-02-01T13:46:44;10.70;;;3.72;;
44885;SDS011;36669;51.428;21.162;2023-02-01T13:49:25;11.32;;;3.78;;
44885;SDS011;36669;51.428;21.162;2023-02-01T13:51:54;17.17;;;5.10;;
44885;SDS011;36669;51.428;21.162;2023-02-01T13:54:27;11.98;;;4.38;;
44885;SDS011;36669;51.428;21.162;2023-02-01T13:56:58;9.30;;;3.45;;
44885;SDS011;36669;51.428;21.162;2023-02-01T14:05:03;9.52;;;2.53;;
44885;SDS011;36669;51.428;21.162;2023-02-01T14:07:29;5.95;;;3.05;;
44885;SDS011;36669;51.428;21.162;2023-02-01T14:09:55;8.38;;;3.70;;
44885;SDS011;36669;51.428;21.162;2023-02-01T14:15:25;8.13;;;2.05;;
44885;SDS011;36669;51.428;21.162;2023-02-01T14:17:52;12.55;;;3.30;;
44885;SDS011;36669;51.428;21.162;2023-02-01T14:21:00;9.20;;;3.15;;
44885;SDS011;36669;51.428;21.162;2023-02-01T14:23:17;4.88;;;2.17;;
44885;SDS011;36669;51.428;21.162;2023-02-01T14:25:46;9.38;;;2.58;;
44885;SDS011;36669;51.428;21.162;2023-02-01T14:28:24;5.88;;;1.95;;
44885;SDS011;36669;51.428;21.162;2023-02-01T14:30:53;6.00;;;2.38;;
44885;SDS011;36669;51.428;21.162;2023-02-01T14:33:22;12.52;;;2.95;;
44885;SDS011;36669;51.428;21.162;2023-02-01T14:35:55;5.57;;;2.83;;
44885;SDS011;36669;51.428;21.162;2023-02-01T14:38:32;10.93;;;3.83;;
44885;SDS011;36669;51.428;21.162;2023-02-01T14:41:13;10.90;;;4.88;;
44885;SDS011;36669;51.428;21.162;2023-02-01T14:44:35;16.35;;;7.50;;
44885;SDS011;36669;51.428;21.162;2023-02-01T14:52:02;12.38;;;5.03;;
44885;SDS011;36669;51.428;21.162;2023-02-01T14:54:34;14.85;;;3.60;;
44885;SDS011;36669;51.428;21.162;2023-02-01T14:57:01;39.83;;;15.63;;
44885;SDS011;36669;51.428;21.162;2023-02-01T14:59:28;18.45;;;6.05;;
44885;SDS011;36669;51.428;21.162;2023-02-01T15:01:58;17.75;;;8.52;;
44885;SDS011;36669;51.428;21.162;2023-02-01T15:04:26;8.18;;;3.75;;
44885;SDS011;36669;51.428;21.162;2023-02-01T15:09:33;5.80;;;2.33;;
44885;SDS011;36669;51.428;21.162;2023-02-01T15:12:15;14.02;;;4.13;;
44885;SDS011;36669;51.428;21.162;2023-02-01T15:17:33;11.98;;;3.55;;
44885;SDS011;36669;51.428;21.162;2023-02-01T15:20:00;9.75;;;3.50;;
44885;SDS011;36669;51.428;21.162;2023-02-01T15:22:28;10.13;;;3.75;;
44885;SDS011;36669;51.428;21.162;2023-02-01T15:24:56;6.93;;;2.60;;
44885;SDS011;36669;51.428;21.162;2023-02-01T15:27:23;11.68;;;4.20;;
44885;SDS011;36669;51.428;21.162;2023-02-01T15:29:50;11.90;;;5.32;;
44885;SDS011;36669;51.428;21.162;2023-02-01T15:32:36;11.27;;;4.55;;
44885;SDS011;36669;51.428;21.162;2023-02-01T15:46:40;20.00;;;6.40;;
44885;SDS011;36669;51.428;21.162;2023-02-01T15:49:18;16.88;;;6.18;;
44885;SDS011;36669;51.428;21.162;2023-02-01T15:51:50;9.50;;;4.63;;
44885;SDS011;36669;51.428;21.162;2023-02-01T15:54:17;12.13;;;4.55;;
44885;SDS011;36669;51.428;21.162;2023-02-01T15:57:07;5.20;;;3.45;;
44885;SDS011;36669;51.428;21.162;2023-02-01T15:59:40;15.98;;;4.57;;
44885;SDS011;36669;51.428;21.162;2023-02-01T16:04:51;11.38;;;3.55;;
44885;SDS011;36669;51.428;21.162;2023-02-01T16:07:29;11.90;;;4.57;;
44885;SDS011;36669;51.428;21.162;2023-02-01T16:09:58;9.38;;;4.00;;
44885;SDS011;36669;51.428;21.162;2023-02-01T16:12:46;9.13;;;5.15;;
44885;SDS011;36669;51.428;21.162;2023-02-01T16:15:12;14.10;;;4.40;;
44885;SDS011;36669;51.428;21.162;2023-02-01T16:17:38;13.98;;;6.85;;
44885;SDS011;36669;51.428;21.162;2023-02-01T16:20:03;25.90;;;10.63;;
44885;SDS011;36669;51.428;21.162;2023-02-01T16:22:29;13.43;;;6.30;;
44885;SDS011;36669;51.428;21.162;2023-02-01T16:24:56;15.95;;;6.15;;
44885;SDS011;36669;51.428;21.162;2023-02-01T16:27:23;9.55;;;4.40;;
44885;SDS011;36669;51.428;21.162;2023-02-01T16:29:50;12.35;;;4.35;;
44885;SDS011;36669;51.428;21.162;2023-02-01T16:32:18;14.90;;;7.05;;
44885;SDS011;36669;51.428;21.162;2023-02-01T16:34:47;15.40;;;5.25;;
44885;SDS011;36669;51.428;21.162;2023-02-01T16:37:24;15.82;;;5.10;;
44885;SDS011;36669;51.428;21.162;2023-02-01T16:39:53;14.30;;;6.07;;
44885;SDS011;36669;51.428;21.162;2023-02-01T16:42:20;19.92;;;9.00;;
44885;SDS011;36669;51.428;21.162;2023-02-01T16:44:46;11.25;;;3.15;;
44885;SDS011;36669;51.428;21.162;2023-02-01T16:47:14;13.60;;;6.43;;
44885;SDS011;36669;51.428;21.162;2023-02-01T16:49:47;23.20;;;9.90;;
44885;SDS011;36669;51.428;21.162;2023-02-01T16:52:17;22.17;;;10.05;;
44885;SDS011;36669;51.428;21.162;2023-02-01T16:54:44;19.27;;;7.38;;
44885;SDS011;36669;51.428;21.162;2023-02-01T16:57:14;19.52;;;9.50;;
44885;SDS011;36669;51.428;21.162;2023-02-01T16:59:43;17.00;;;9.70;;
44885;SDS011;36669;51.428;21.162;2023-02-01T17:02:13;10.65;;;5.85;;
44885;SDS011;36669;51.428;21.162;2023-02-01T17:04:40;13.85;;;6.30;;
44885;SDS011;36669;51.428;21.162;2023-02-01T17:07:06;6.03;;;3.60;;
44885;SDS011;36669;51.428;21.162;2023-02-01T17:09:36;11.30;;;6.35;;
44885;SDS011;36669;51.428;21.162;2023-02-01T17:12:02;15.95;;;7.60;;
44885;SDS011;36669;51.428;21.162;2023-02-01T17:14:29;16.20;;;6.32;;
44885;SDS011;36669;51.428;21.162;2023-02-01T17:17:00;12.80;;;5.72;;
44885;SDS011;36669;51.428;21.162;2023-02-01T17:19:26;18.55;;;8.25;;
44885;SDS011;36669;51.428;21.162;2023-02-01T17:21:53;11.13;;;4.78;;
44885;SDS011;36669;51.428;21.162;2023-02-01T17:24:28;10.85;;;5.35;;
44885;SDS011;36669;51.428;21.162;2023-02-01T17:26:55;11.35;;;5.38;;
44885;SDS011;36669;51.428;21.162;2023-02-01T17:29:21;8.73;;;4.97;;